Palmetto Bay, Florida
Current Conditions -  °F | °C
As of 12:53 PM on Monday 26 Jan 2015 (Local Time) from KTMB Reporting Station
Few Clouds Few Clouds  
Wind Chill: 74°   Ceiling: Unl
Heat Index: 74°   Visibility: 10mi
Dew Point: 58°   Wind: 20mph
Humidity: 57%   Direction: 300°WNW
Pressure: 29.91"   Gusts: NA
Location:  25.6371°N, 80.3102°W
Report Text: KTMB 261753Z 30017KT 10SM FEW035 23/14 A2991 RMK AO2 SLP129 60008 T02330144 10250 20139 58019
Loading
Personal Weather Stations






























Interactive Weather Map New forecast layout! Learn more

10-Day Weather Forecast

Advertisements
Track Severe Weather on mobile